Time;durP1;ratioP1;P1;durP2;ratioP2;P2;SDS_P1;SDS_P2;PMS_P1;PMS_P2;Temp;Humidity;BMP_temperature;BMP_pressure;BME280_temperature;BME280_humidity;BME280_pressure;Samples;Min_cycle;Max_cycle;Signal;HPM_P1;HPM_P2
2021/06/12 00:00:09;;;;;;;15.93;6.60;;;;;;;;;;4982453;28;20864;-71
2021/06/12 00:02:35;;;;;;;17.43;8.90;;;;;;;;;;4972468;28;20441;-72
2021/06/12 00:05:01;;;;;;;11.77;7.93;;;;;;;;;;4978649;28;20510;-71
2021/06/12 00:07:27;;;;;;;13.90;8.07;;;;;;;;;;4980846;28;20494;-71
2021/06/12 00:09:53;;;;;;;13.73;7.60;;;;;;;;;;4957153;28;20478;-71
2021/06/12 00:12:19;;;;;;;15.07;9.00;;;;;;;;;;4981232;28;20450;-71
2021/06/12 00:14:45;;;;;;;11.90;7.73;;;;;;;;;;4961526;28;20490;-71
2021/06/12 00:17:11;;;;;;;18.07;7.97;;;;;;;;;;4978985;28;20440;-70
2021/06/12 00:19:37;;;;;;;11.30;6.90;;;;;;;;;;4980572;28;20452;-72
2021/06/12 00:22:03;;;;;;;14.97;8.47;;;;;;;;;;4983317;28;20962;-71
2021/06/12 00:24:29;;;;;;;16.70;8.33;;;;;;;;;;4985949;28;20704;-71
2021/06/12 00:26:55;;;;;;;15.27;7.57;;;;;;;;;;4983249;28;20484;-71
2021/06/12 00:29:21;;;;;;;13.07;7.90;;;;;;;;;;4980203;28;20532;-71
2021/06/12 00:31:47;;;;;;;13.63;8.30;;;;;;;;;;4982883;28;20445;-71
2021/06/12 00:34:13;;;;;;;13.70;7.60;;;;;;;;;;4982303;28;20445;-71
2021/06/12 00:36:39;;;;;;;13.47;8.80;;;;;;;;;;4954813;28;20496;-71
2021/06/12 00:39:05;;;;;;;14.60;8.00;;;;;;;;;;4979104;28;20531;-70
2021/06/12 00:41:31;;;;;;;14.47;8.80;;;;;;;;;;4980573;28;20524;-70
2021/06/12 00:43:57;;;;;;;13.47;8.17;;;;;;;;;;4973920;28;20480;-71
2021/06/12 00:46:23;;;;;;;16.27;8.87;;;;;;;;;;4978790;28;20453;-71
2021/06/12 00:48:51;;;;;;;20.40;9.13;;;;;;;;;;4983488;28;20441;-71
2021/06/12 00:51:18;;;;;;;13.70;7.93;;;;;;;;;;4983426;28;20449;-71
2021/06/12 00:53:44;;;;;;;14.07;9.50;;;;;;;;;;4982236;28;20487;-71
2021/06/12 00:56:11;;;;;;;15.93;9.40;;;;;;;;;;4979364;28;20496;-71
2021/06/12 00:58:42;;;;;;;15.50;8.70;;;;;;;;;;4979701;28;20455;-71
2021/06/12 01:01:09;;;;;;;13.90;9.17;;;;;;;;;;4983602;28;20530;-71
2021/06/12 01:03:35;;;;;;;17.27;10.07;;;;;;;;;;4982536;28;20963;-71
2021/06/12 01:06:02;;;;;;;22.07;10.00;;;;;;;;;;4982553;28;20465;-71
2021/06/12 01:08:28;;;;;;;18.73;9.87;;;;;;;;;;4978047;28;20442;-71
2021/06/12 01:10:54;;;;;;;18.37;9.10;;;;;;;;;;4979546;28;20440;-71
2021/06/12 01:13:40;;;;;;;20.13;8.77;;;;;;;;;;4980558;28;20455;-71
2021/06/12 01:16:11;;;;;;;16.70;8.60;;;;;;;;;;4975862;28;20547;-71
2021/06/12 01:18:39;;;;;;;19.20;9.40;;;;;;;;;;4985020;28;20440;-71
2021/06/12 01:21:05;;;;;;;12.77;8.70;;;;;;;;;;4973110;28;20432;-71
2021/06/12 01:23:50;;;;;;;18.70;10.73;;;;;;;;;;4980629;28;20472;-71
2021/06/12 01:26:34;;;;;;;19.33;10.17;;;;;;;;;;4979167;28;20555;-71
2021/06/12 01:29:08;;;;;;;21.77;9.27;;;;;;;;;;4969578;28;20444;-71
2021/06/12 01:31:35;;;;;;;18.33;9.70;;;;;;;;;;4981251;28;20840;-71
2021/06/12 01:34:02;;;;;;;14.73;9.17;;;;;;;;;;4981604;28;20449;-71
2021/06/12 01:36:29;;;;;;;16.30;9.60;;;;;;;;;;4972716;28;20465;-71
2021/06/12 01:38:56;;;;;;;15.10;8.20;;;;;;;;;;4976936;28;20514;-72
2021/06/12 01:41:22;;;;;;;17.33;9.00;;;;;;;;;;4979361;28;20559;-71
2021/06/12 01:43:49;;;;;;;17.07;9.30;;;;;;;;;;4979564;28;20465;-71
2021/06/12 01:46:16;;;;;;;15.83;8.57;;;;;;;;;;4980985;28;20552;-70
2021/06/12 01:48:42;;;;;;;15.67;8.80;;;;;;;;;;4975552;28;20428;-71
2021/06/12 01:51:09;;;;;;;15.50;9.20;;;;;;;;;;4971761;28;20955;-70
2021/06/12 01:53:36;;;;;;;17.93;8.63;;;;;;;;;;4980254;28;20437;-71
2021/06/12 01:56:05;;;;;;;19.40;9.13;;;;;;;;;;4981063;28;20469;-71
2021/06/12 01:58:32;;;;;;;17.70;10.27;;;;;;;;;;4955515;28;20452;-71
2021/06/12 02:00:58;;;;;;;18.30;8.73;;;;;;;;;;4980390;28;20456;-72
2021/06/12 02:03:25;;;;;;;18.93;10.83;;;;;;;;;;4982238;28;20523;-71
2021/06/12 02:05:51;;;;;;;17.50;10.53;;;;;;;;;;4979491;28;20487;-71
2021/06/12 02:08:19;;;;;;;15.40;8.83;;;;;;;;;;4974966;28;20441;-71
2021/06/12 02:10:46;;;;;;;15.13;8.93;;;;;;;;;;4981744;28;20440;-70
2021/06/12 02:13:12;;;;;;;17.90;9.53;;;;;;;;;;4981853;28;20449;-72
2021/06/12 02:15:39;;;;;;;21.43;10.37;;;;;;;;;;4981294;28;20468;-71
2021/06/12 02:18:07;;;;;;;18.50;10.00;;;;;;;;;;4971036;28;20457;-72
2021/06/12 02:20:34;;;;;;;19.33;9.03;;;;;;;;;;4978736;28;20445;-71
2021/06/12 02:23:01;;;;;;;16.67;9.63;;;;;;;;;;4982592;28;20522;-71
2021/06/12 02:25:27;;;;;;;17.37;9.27;;;;;;;;;;4978415;28;20978;-70
2021/06/12 02:27:55;;;;;;;17.73;9.53;;;;;;;;;;4979356;28;20957;-71
2021/06/12 02:30:22;;;;;;;16.97;8.67;;;;;;;;;;4979169;28;20527;-71
2021/06/12 02:32:51;;;;;;;20.13;9.17;;;;;;;;;;4977576;28;20432;-70
2021/06/12 02:35:17;;;;;;;14.97;8.93;;;;;;;;;;4971615;28;20487;-72
2021/06/12 02:37:45;;;;;;;19.77;8.60;;;;;;;;;;4979717;28;20951;-72
2021/06/12 02:40:11;;;;;;;16.70;9.80;;;;;;;;;;4976328;28;20473;-71
2021/06/12 02:42:37;;;;;;;14.33;8.77;;;;;;;;;;4977486;28;20449;-70
2021/06/12 02:45:05;;;;;;;13.93;7.97;;;;;;;;;;4977874;28;20465;-71
2021/06/12 02:47:31;;;;;;;14.77;8.90;;;;;;;;;;4982378;28;20457;-71
2021/06/12 02:49:58;;;;;;;16.03;8.77;;;;;;;;;;4978071;28;20444;-70
2021/06/12 02:52:31;;;;;;;15.30;8.03;;;;;;;;;;4980293;28;20445;-71
2021/06/12 02:54:59;;;;;;;16.43;8.77;;;;;;;;;;4966015;28;20667;-71
2021/06/12 02:57:26;;;;;;;14.80;8.90;;;;;;;;;;4958552;28;20449;-71
2021/06/12 02:59:53;;;;;;;18.80;9.60;;;;;;;;;;4977072;28;20493;-71
2021/06/12 03:02:19;;;;;;;13.93;7.43;;;;;;;;;;4975859;28;20441;-71
2021/06/12 03:04:45;;;;;;;13.40;8.50;;;;;;;;;;4977533;28;21029;-71
2021/06/12 03:07:13;;;;;;;17.13;8.50;;;;;;;;;;4975738;28;20441;-70
2021/06/12 03:09:39;;;;;;;13.53;8.03;;;;;;;;;;4975462;28;20816;-70
2021/06/12 03:12:07;;;;;;;14.60;7.70;;;;;;;;;;4976892;28;20440;-71
2021/06/12 03:14:33;;;;;;;12.47;7.20;;;;;;;;;;4978863;28;20997;-72
2021/06/12 03:16:59;;;;;;;16.93;8.57;;;;;;;;;;4972782;28;20973;-71
2021/06/12 03:19:25;;;;;;;14.57;8.47;;;;;;;;;;4967682;28;20444;-72
2021/06/12 03:21:52;;;;;;;14.47;8.70;;;;;;;;;;4972907;28;20449;-70
2021/06/12 03:24:19;;;;;;;14.50;7.70;;;;;;;;;;4984354;28;20468;-71
2021/06/12 03:26:48;;;;;;;13.07;7.37;;;;;;;;;;4975677;28;20975;-72
2021/06/12 03:29:14;;;;;;;11.50;6.17;;;;;;;;;;4982061;28;20436;-71
2021/06/12 03:31:40;;;;;;;12.47;7.80;;;;;;;;;;4981737;28;20432;-72
2021/06/12 03:34:07;;;;;;;13.17;7.40;;;;;;;;;;4983726;28;20527;-70
2021/06/12 03:36:33;;;;;;;13.93;9.10;;;;;;;;;;4983661;28;20467;-70
2021/06/12 03:39:00;;;;;;;11.67;6.80;;;;;;;;;;4970328;28;20455;-73
2021/06/12 03:41:26;;;;;;;15.10;7.70;;;;;;;;;;4976525;28;20451;-72
2021/06/12 03:43:52;;;;;;;12.30;6.90;;;;;;;;;;4982736;28;20476;-71
2021/06/12 03:46:19;;;;;;;12.63;7.90;;;;;;;;;;4982416;28;20462;-71
2021/06/12 03:48:46;;;;;;;11.43;7.03;;;;;;;;;;4975159;28;20448;-71
2021/06/12 03:51:13;;;;;;;10.30;6.37;;;;;;;;;;4980891;28;20447;-72
2021/06/12 03:53:47;;;;;;;11.80;6.17;;;;;;;;;;4980993;28;20444;-70
2021/06/12 03:56:14;;;;;;;10.30;6.80;;;;;;;;;;4981350;28;20480;-71
2021/06/12 03:58:41;;;;;;;13.97;6.93;;;;;;;;;;4982864;28;20490;-70
2021/06/12 04:01:07;;;;;;;13.57;6.30;;;;;;;;;;4975231;28;21277;-71
2021/06/12 04:03:33;;;;;;;11.57;7.10;;;;;;;;;;4983240;28;20472;-72
2021/06/12 04:05:59;;;;;;;14.50;6.90;;;;;;;;;;4954630;28;20544;-71
2021/06/12 04:08:25;;;;;;;11.80;7.10;;;;;;;;;;4980992;28;20472;-71
2021/06/12 04:10:51;;;;;;;19.17;7.73;;;;;;;;;;4981270;28;20608;-71
2021/06/12 04:13:17;;;;;;;11.37;6.90;;;;;;;;;;4972004;28;21024;-71
2021/06/12 04:15:43;;;;;;;12.00;8.07;;;;;;;;;;4981048;28;20453;-72
2021/06/12 04:18:09;;;;;;;14.43;7.80;;;;;;;;;;4980542;28;20441;-72
2021/06/12 04:20:36;;;;;;;16.17;6.73;;;;;;;;;;4982097;28;20926;-71
2021/06/12 04:23:02;;;;;;;12.87;7.10;;;;;;;;;;4982108;28;20464;-72
2021/06/12 04:25:29;;;;;;;13.50;8.40;;;;;;;;;;4974083;28;20464;-71
2021/06/12 04:27:55;;;;;;;12.97;7.93;;;;;;;;;;4980640;28;20437;-70
2021/06/12 04:30:21;;;;;;;14.47;8.50;;;;;;;;;;4966936;28;20520;-71
2021/06/12 04:32:47;;;;;;;15.93;8.13;;;;;;;;;;4981962;28;20433;-71
2021/06/12 04:35:14;;;;;;;12.27;7.60;;;;;;;;;;4980565;28;20547;-71
2021/06/12 04:37:41;;;;;;;15.70;8.40;;;;;;;;;;4959341;28;133327;-71
2021/06/12 04:40:08;;;;;;;14.20;7.77;;;;;;;;;;4976452;28;20433;-71
2021/06/12 04:42:33;;;;;;;17.50;8.70;;;;;;;;;;4978749;28;20436;-71
2021/06/12 04:44:59;;;;;;;13.70;7.20;;;;;;;;;;4969791;28;21025;-72
2021/06/12 04:47:25;;;;;;;14.43;7.27;;;;;;;;;;4983852;28;20444;-70
2021/06/12 04:49:51;;;;;;;11.30;7.13;;;;;;;;;;4982835;28;20812;-70
2021/06/12 04:52:18;;;;;;;12.03;7.53;;;;;;;;;;4973592;28;20624;-72
2021/06/12 04:54:46;;;;;;;13.23;6.77;;;;;;;;;;4972415;28;20448;-71
2021/06/12 04:57:12;;;;;;;14.73;7.70;;;;;;;;;;4969441;28;20495;-71
2021/06/12 04:59:38;;;;;;;13.77;7.73;;;;;;;;;;4981741;28;20472;-70
2021/06/12 05:02:04;;;;;;;8.90;7.37;;;;;;;;;;4979876;28;20852;-71
2021/06/12 05:04:30;;;;;;;10.17;7.23;;;;;;;;;;4983224;28;20464;-71
2021/06/12 05:06:56;;;;;;;12.00;7.60;;;;;;;;;;4979853;28;20456;-72
2021/06/12 05:09:22;;;;;;;17.43;9.70;;;;;;;;;;4982520;28;20437;-70
2021/06/12 05:11:50;;;;;;;14.73;8.17;;;;;;;;;;4982391;28;20499;-71
2021/06/12 05:14:16;;;;;;;12.87;7.80;;;;;;;;;;4981456;28;20503;-72
2021/06/12 05:16:42;;;;;;;14.07;7.93;;;;;;;;;;4978202;28;20468;-71
2021/06/12 05:19:08;;;;;;;9.93;6.23;;;;;;;;;;4967256;28;20802;-72
2021/06/12 05:21:36;;;;;;;11.80;6.93;;;;;;;;;;4978781;28;20445;-71
2021/06/12 05:24:02;;;;;;;12.00;6.90;;;;;;;;;;4972911;28;20464;-71
2021/06/12 05:26:28;;;;;;;10.00;6.73;;;;;;;;;;4978978;28;20500;-72
2021/06/12 05:28:54;;;;;;;9.80;6.63;;;;;;;;;;4951547;28;20955;-71
2021/06/12 05:31:21;;;;;;;11.70;7.30;;;;;;;;;;4981206;28;20436;-71
2021/06/12 05:33:47;;;;;;;10.40;6.63;;;;;;;;;;4979120;28;20443;-72
2021/06/12 05:36:13;;;;;;;10.00;7.00;;;;;;;;;;4978449;28;20591;-70
2021/06/12 05:38:39;;;;;;;9.83;6.43;;;;;;;;;;4971210;28;20495;-72
2021/06/12 05:41:05;;;;;;;12.43;7.77;;;;;;;;;;4963578;28;20467;-71
2021/06/12 05:43:32;;;;;;;13.40;6.67;;;;;;;;;;4972279;28;20563;-71
2021/06/12 05:45:58;;;;;;;10.60;6.10;;;;;;;;;;4968598;28;20457;-71
2021/06/12 05:48:25;;;;;;;8.10;5.57;;;;;;;;;;4978969;28;20950;-72
2021/06/12 05:50:51;;;;;;;6.40;4.17;;;;;;;;;;4984374;28;20441;-72
2021/06/12 05:53:17;;;;;;;8.30;4.30;;;;;;;;;;4982252;28;20504;-71
2021/06/12 05:55:44;;;;;;;6.37;4.00;;;;;;;;;;4982278;28;20456;-72
2021/06/12 05:58:10;;;;;;;6.90;3.83;;;;;;;;;;4974231;28;20888;-72
2021/06/12 06:00:36;;;;;;;4.20;3.20;;;;;;;;;;4977629;28;20455;-71
2021/06/12 06:03:02;;;;;;;5.60;3.07;;;;;;;;;;4971762;28;20445;-71
2021/06/12 06:05:28;;;;;;;5.17;2.90;;;;;;;;;;4977626;28;20463;-71
2021/06/12 06:07:55;;;;;;;5.40;3.30;;;;;;;;;;4978633;28;20583;-73
2021/06/12 06:10:21;;;;;;;5.10;2.40;;;;;;;;;;4977503;28;20429;-71
2021/06/12 06:12:47;;;;;;;4.23;2.40;;;;;;;;;;4977851;28;20541;-70
2021/06/12 06:15:13;;;;;;;2.33;1.70;;;;;;;;;;4979899;28;20462;-72
2021/06/12 06:17:40;;;;;;;4.17;2.33;;;;;;;;;;4978049;28;20437;-70
2021/06/12 06:20:07;;;;;;;7.80;2.50;;;;;;;;;;4979609;28;20475;-71
2021/06/12 06:22:33;;;;;;;2.33;2.13;;;;;;;;;;4980269;28;20959;-72
2021/06/12 06:24:59;;;;;;;3.60;2.30;;;;;;;;;;4979924;28;20475;-72
2021/06/12 06:27:25;;;;;;;2.67;1.70;;;;;;;;;;4952773;28;20483;-71
2021/06/12 06:29:51;;;;;;;3.33;2.20;;;;;;;;;;4982312;28;20528;-72
2021/06/12 06:32:17;;;;;;;3.57;2.07;;;;;;;;;;4975800;28;20884;-71
2021/06/12 06:34:43;;;;;;;2.17;1.93;;;;;;;;;;4982003;28;20445;-70
2021/06/12 06:37:09;;;;;;;2.50;1.73;;;;;;;;;;4976530;28;20476;-71
2021/06/12 06:39:35;;;;;;;2.37;1.73;;;;;;;;;;4979105;28;20445;-71
2021/06/12 06:42:02;;;;;;;3.03;1.57;;;;;;;;;;4975475;28;20951;-72
2021/06/12 06:44:28;;;;;;;1.20;1.10;;;;;;;;;;4975438;28;20644;-71
2021/06/12 06:46:55;;;;;;;1.57;1.47;;;;;;;;;;4973753;28;21065;-71
2021/06/12 06:49:21;;;;;;;6.93;1.40;;;;;;;;;;4985150;28;20445;-71
2021/06/12 06:51:47;;;;;;;4.20;1.73;;;;;;;;;;4986935;28;20760;-71
2021/06/12 06:54:13;;;;;;;5.77;2.10;;;;;;;;;;4985655;28;20936;-72
2021/06/12 06:56:39;;;;;;;1.93;1.00;;;;;;;;;;4986739;28;20456;-71
2021/06/12 06:59:05;;;;;;;2.50;1.20;;;;;;;;;;4983093;28;20429;-71
2021/06/12 07:01:31;;;;;;;3.10;1.07;;;;;;;;;;4984707;28;20459;-71
2021/06/12 07:03:59;;;;;;;2.03;1.40;;;;;;;;;;4984961;28;20469;-71
2021/06/12 07:06:25;;;;;;;1.57;1.10;;;;;;;;;;4978623;28;20832;-72
2021/06/12 07:08:51;;;;;;;5.03;1.43;;;;;;;;;;4981695;28;20437;-70
2021/06/12 07:11:17;;;;;;;1.13;1.03;;;;;;;;;;4982998;28;20437;-72
2021/06/12 07:13:43;;;;;;;1.57;1.20;;;;;;;;;;4985762;28;21002;-71
2021/06/12 07:16:09;;;;;;;2.87;1.40;;;;;;;;;;4975491;28;20464;-71
2021/06/12 07:18:35;;;;;;;4.30;1.10;;;;;;;;;;4977819;28;20448;-71
2021/06/12 07:21:01;;;;;;;1.23;0.83;;;;;;;;;;4970472;28;20955;-71
2021/06/12 07:23:27;;;;;;;1.10;1.00;;;;;;;;;;4982553;28;20461;-71
2021/06/12 07:25:53;;;;;;;1.53;1.00;;;;;;;;;;4983595;28;20464;-72
2021/06/12 07:28:19;;;;;;;1.37;0.90;;;;;;;;;;4978831;28;20440;-70
2021/06/12 07:30:45;;;;;;;1.13;1.03;;;;;;;;;;4976288;28;20455;-73
2021/06/12 07:33:14;;;;;;;1.13;0.77;;;;;;;;;;4980972;28;20870;-73
2021/06/12 07:35:41;;;;;;;1.73;1.23;;;;;;;;;;4981340;28;21174;-72
2021/06/12 07:38:07;;;;;;;1.23;0.80;;;;;;;;;;4979361;28;20503;-73
2021/06/12 07:40:34;;;;;;;4.93;0.90;;;;;;;;;;4982301;28;20507;-72
2021/06/12 07:43:00;;;;;;;1.47;0.90;;;;;;;;;;4972120;28;20448;-71
2021/06/12 07:45:26;;;;;;;1.43;1.03;;;;;;;;;;4978421;28;20514;-71
2021/06/12 07:47:52;;;;;;;6.33;1.00;;;;;;;;;;4979543;28;20923;-73
2021/06/12 07:50:19;;;;;;;2.73;0.77;;;;;;;;;;4961781;28;20532;-73
2021/06/12 07:52:45;;;;;;;2.60;0.60;;;;;;;;;;4981081;28;20433;-73
2021/06/12 07:55:11;;;;;;;4.53;0.90;;;;;;;;;;4982473;28;20881;-73
2021/06/12 07:57:37;;;;;;;1.83;0.80;;;;;;;;;;4976148;28;20469;-73
2021/06/12 08:00:08;;;;;;;2.20;1.43;;;;;;;;;;4962794;28;20592;-74
2021/06/12 08:02:34;;;;;;;3.50;1.00;;;;;;;;;;4981842;28;20544;-72
2021/06/12 08:05:00;;;;;;;0.80;0.80;;;;;;;;;;4979794;28;20517;-72
2021/06/12 08:07:26;;;;;;;0.70;0.60;;;;;;;;;;4974505;28;20445;-72
2021/06/12 08:09:52;;;;;;;3.20;0.80;;;;;;;;;;4980244;28;20441;-72
2021/06/12 08:12:20;;;;;;;1.20;0.80;;;;;;;;;;4979233;28;20515;-71
2021/06/12 08:14:46;;;;;;;0.60;0.60;;;;;;;;;;4985283;28;20472;-75
2021/06/12 08:17:12;;;;;;;0.60;0.60;;;;;;;;;;4984631;28;20871;-73
2021/06/12 08:19:38;;;;;;;0.60;0.60;;;;;;;;;;4984493;28;20448;-73
2021/06/12 08:22:04;;;;;;;2.60;0.60;;;;;;;;;;4982575;28;21014;-74
2021/06/12 08:24:30;;;;;;;2.40;0.93;;;;;;;;;;4978837;28;20472;-71
2021/06/12 08:26:57;;;;;;;0.93;0.77;;;;;;;;;;4983993;28;20464;-74
2021/06/12 08:29:23;;;;;;;2.00;1.23;;;;;;;;;;4983826;28;20437;-73
2021/06/12 08:31:49;;;;;;;4.87;0.90;;;;;;;;;;4973734;28;20433;-73
2021/06/12 08:34:15;;;;;;;2.00;1.03;;;;;;;;;;4975611;28;20449;-73
2021/06/12 08:36:41;;;;;;;0.50;0.50;;;;;;;;;;4975829;28;20464;-73
2021/06/12 08:39:07;;;;;;;0.50;0.50;;;;;;;;;;4980640;28;20449;-74
2021/06/12 08:41:33;;;;;;;2.50;1.13;;;;;;;;;;4978722;28;20448;-73
2021/06/12 08:44:00;;;;;;;0.80;0.70;;;;;;;;;;4968433;28;20472;-73
2021/06/12 08:46:27;;;;;;;0.90;0.70;;;;;;;;;;4971563;28;20604;-74
2021/06/12 08:48:53;;;;;;;1.00;0.80;;;;;;;;;;4984458;28;20977;-74
2021/06/12 08:51:19;;;;;;;0.50;0.50;;;;;;;;;;4981508;28;20437;-72
2021/06/12 08:53:45;;;;;;;0.80;0.80;;;;;;;;;;4974333;28;21758;-74
2021/06/12 08:56:11;;;;;;;0.70;0.70;;;;;;;;;;4974151;28;20464;-73
2021/06/12 08:58:37;;;;;;;0.60;0.60;;;;;;;;;;4977375;28;21687;-74
2021/06/12 09:01:03;;;;;;;3.70;0.70;;;;;;;;;;4972359;28;20437;-73
2021/06/12 09:03:29;;;;;;;0.50;0.50;;;;;;;;;;4976235;28;21059;-73
2021/06/12 09:06:02;;;;;;;1.53;0.60;;;;;;;;;;4971169;28;20457;-73
2021/06/12 09:08:32;;;;;;;0.80;0.80;;;;;;;;;;4970254;28;20440;-74
2021/06/12 09:11:04;;;;;;;2.00;0.57;;;;;;;;;;4973004;28;20440;-74
2021/06/12 09:13:38;;;;;;;0.80;0.50;;;;;;;;;;4974930;28;20880;-73
2021/06/12 09:16:04;;;;;;;0.97;0.70;;;;;;;;;;4952830;28;20736;-73
2021/06/12 09:18:37;;;;;;;1.80;1.70;;;;;;;;;;4978906;28;21274;-74
2021/06/12 09:21:03;;;;;;;3.50;0.70;;;;;;;;;;4970458;28;20483;-74
2021/06/12 09:23:37;;;;;;;1.10;0.50;;;;;;;;;;4975881;28;20469;-73
2021/06/12 09:26:03;;;;;;;1.50;0.50;;;;;;;;;;4974261;28;20459;-74
2021/06/12 09:28:44;;;;;;;0.60;0.60;;;;;;;;;;4973708;28;20440;-74
2021/06/12 09:31:27;;;;;;;0.60;0.60;;;;;;;;;;4975335;28;20429;-72
2021/06/12 09:33:55;;;;;;;1.00;0.63;;;;;;;;;;4975428;28;20464;-73
2021/06/12 09:36:31;;;;;;;0.60;0.60;;;;;;;;;;4977536;28;20465;-71
2021/06/12 09:39:14;;;;;;;0.50;0.50;;;;;;;;;;4972168;28;20451;-73
2021/06/12 09:41:49;;;;;;;0.93;0.60;;;;;;;;;;4979159;28;20435;-73
2021/06/12 09:44:33;;;;;;;0.93;0.63;;;;;;;;;;4974070;28;20566;-74
2021/06/12 09:47:01;;;;;;;0.70;0.70;;;;;;;;;;4974270;28;21168;-72
2021/06/12 09:49:32;;;;;;;1.47;0.50;;;;;;;;;;4978132;28;20444;-73
2021/06/12 09:52:24;;;;;;;0.90;0.67;;;;;;;;;;4981886;28;20529;-73
2021/06/12 09:54:51;;;;;;;1.07;0.50;;;;;;;;;;4974834;28;20445;-74
2021/06/12 09:57:18;;;;;;;0.60;0.50;;;;;;;;;;4976287;28;21033;-73
2021/06/12 09:59:54;;;;;;;0.93;0.50;;;;;;;;;;4984023;28;20468;-72
2021/06/12 10:02:37;;;;;;;0.60;0.60;;;;;;;;;;4979047;28;20516;-74
2021/06/12 10:05:04;;;;;;;0.60;0.60;;;;;;;;;;4979105;28;20496;-74
2021/06/12 10:07:31;;;;;;;0.70;0.50;;;;;;;;;;4981938;28;20434;-73
2021/06/12 10:10:01;;;;;;;0.90;0.63;;;;;;;;;;4976167;28;20432;-71
2021/06/12 10:12:27;;;;;;;1.83;0.70;;;;;;;;;;4978869;28;20464;-73
2021/06/12 10:14:53;;;;;;;4.77;0.80;;;;;;;;;;4981234;28;20854;-71
2021/06/12 10:17:21;;;;;;;2.20;0.73;;;;;;;;;;4979676;28;20437;-73
2021/06/12 10:19:50;;;;;;;1.40;0.60;;;;;;;;;;4982140;28;20511;-73
2021/06/12 10:22:16;;;;;;;0.83;0.60;;;;;;;;;;4973969;28;20440;-73
2021/06/12 10:24:42;;;;;;;2.10;0.80;;;;;;;;;;4975498;28;20468;-73
2021/06/12 10:27:09;;;;;;;2.17;0.70;;;;;;;;;;4970494;28;20496;-73
2021/06/12 10:29:35;;;;;;;0.90;0.67;;;;;;;;;;4979422;28;22199;-74
2021/06/12 10:32:01;;;;;;;0.90;0.90;;;;;;;;;;4982919;28;20532;-73
2021/06/12 10:34:28;;;;;;;1.50;0.70;;;;;;;;;;4981984;28;20433;-74
2021/06/12 10:37:03;;;;;;;2.10;0.60;;;;;;;;;;4984656;28;20473;-74
2021/06/12 10:39:33;;;;;;;5.53;0.80;;;;;;;;;;4977950;28;20456;-73
2021/06/12 10:42:23;;;;;;;2.90;0.70;;;;;;;;;;4985271;28;20949;-73
2021/06/12 10:44:50;;;;;;;1.90;1.00;;;;;;;;;;4979653;28;20994;-73
2021/06/12 10:47:46;;;;;;;0.60;0.60;;;;;;;;;;4982217;28;20527;-74
2021/06/12 10:50:24;;;;;;;1.90;0.80;;;;;;;;;;4984942;28;20441;-72
2021/06/12 10:52:51;;;;;;;1.83;1.00;;;;;;;;;;4976568;28;20468;-72
2021/06/12 10:55:43;;;;;;;1.27;1.07;;;;;;;;;;4984620;28;20456;-73
2021/06/12 10:58:28;;;;;;;0.90;0.90;;;;;;;;;;4983787;28;20556;-73
2021/06/12 11:01:06;;;;;;;4.13;1.37;;;;;;;;;;4980258;28;20467;-73
2021/06/12 11:03:53;;;;;;;0.97;0.70;;;;;;;;;;4981861;28;20538;-73
2021/06/12 11:06:33;;;;;;;0.50;0.50;;;;;;;;;;4978116;28;20491;-73
2021/06/12 11:09:23;;;;;;;6.23;0.80;;;;;;;;;;4982211;28;20491;-72
2021/06/12 11:11:52;;;;;;;1.23;0.70;;;;;;;;;;4978669;28;20520;-72
2021/06/12 11:14:22;;;;;;;1.17;1.07;;;;;;;;;;4980660;28;20528;-74
2021/06/12 11:19:36;;;;;;;0.80;0.80;;;;;;;;;;4980413;28;20547;-74
2021/06/12 11:22:21;;;;;;;10.33;1.03;;;;;;;;;;4980745;28;20469;-73
2021/06/12 11:24:47;;;;;;;1.70;0.90;;;;;;;;;;4981589;28;20583;-73
2021/06/12 11:27:42;;;;;;;0.77;0.57;;;;;;;;;;4984277;28;21042;-73
2021/06/12 11:30:17;;;;;;;7.00;1.43;;;;;;;;;;4976044;28;20428;-74
2021/06/12 11:32:44;;;;;;;0.80;0.80;;;;;;;;;;4983360;28;21004;-74
2021/06/12 11:35:11;;;;;;;2.40;0.77;;;;;;;;;;4980756;28;20543;-72
2021/06/12 11:37:37;;;;;;;0.80;0.60;;;;;;;;;;4985070;28;20453;-74
2021/06/12 11:40:05;;;;;;;4.00;0.80;;;;;;;;;;4982888;28;20919;-72
2021/06/12 11:42:41;;;;;;;1.00;0.67;;;;;;;;;;4988632;28;20436;-73
2021/06/12 11:45:33;;;;;;;0.60;0.60;;;;;;;;;;4987558;28;20456;-73
2021/06/12 11:48:14;;;;;;;0.60;0.60;;;;;;;;;;4987642;28;20495;-73
2021/06/12 11:50:40;;;;;;;0.93;0.80;;;;;;;;;;4990512;28;20436;-73
2021/06/12 11:53:17;;;;;;;0.77;0.53;;;;;;;;;;4986776;28;20976;-73
2021/06/12 11:55:44;;;;;;;3.50;0.90;;;;;;;;;;4987931;28;20456;-73
2021/06/12 11:58:10;;;;;;;0.80;0.57;;;;;;;;;;4990577;28;20876;-73
2021/06/12 12:00:38;;;;;;;1.23;0.60;;;;;;;;;;4985019;28;20453;-73
2021/06/12 12:03:08;;;;;;;0.60;0.60;;;;;;;;;;4990015;28;20448;-73
2021/06/12 12:05:38;;;;;;;2.30;0.70;;;;;;;;;;4984415;28;20823;-73
2021/06/12 12:08:12;;;;;;;2.50;0.60;;;;;;;;;;4986940;28;20428;-73
2021/06/12 12:10:40;;;;;;;1.30;1.07;;;;;;;;;;4989883;28;20433;-73
2021/06/12 12:13:06;;;;;;;1.10;0.60;;;;;;;;;;4989246;28;20436;-74
2021/06/12 12:15:39;;;;;;;2.43;1.20;;;;;;;;;;4987633;28;20989;-72
2021/06/12 12:18:06;;;;;;;4.17;0.70;;;;;;;;;;4987853;28;20433;-73
2021/06/12 12:20:37;;;;;;;0.47;0.47;;;;;;;;;;4986281;28;20845;-73
2021/06/12 12:23:04;;;;;;;1.63;0.70;;;;;;;;;;4989048;28;20889;-71
2021/06/12 12:25:33;;;;;;;1.80;0.80;;;;;;;;;;4987135;28;20457;-72
2021/06/12 12:28:04;;;;;;;0.70;0.70;;;;;;;;;;4987581;28;21174;-74
2021/06/12 12:30:30;;;;;;;1.33;0.90;;;;;;;;;;4989186;28;20467;-74
2021/06/12 12:33:26;;;;;;;0.87;0.80;;;;;;;;;;4990904;28;20413;-74
2021/06/12 12:36:01;;;;;;;4.50;0.90;;;;;;;;;;4981682;28;20607;-73
2021/06/12 12:38:27;;;;;;;1.03;0.77;;;;;;;;;;4982701;28;20455;-74
2021/06/12 12:40:53;;;;;;;1.23;0.70;;;;;;;;;;4987189;28;20436;-74
2021/06/12 12:43:20;;;;;;;0.53;0.53;;;;;;;;;;4988495;28;21254;-73
2021/06/12 12:45:48;;;;;;;0.80;0.80;;;;;;;;;;4986343;28;20875;-74
2021/06/12 12:48:15;;;;;;;1.77;0.80;;;;;;;;;;4989556;28;20945;-74
2021/06/12 12:50:41;;;;;;;0.90;0.70;;;;;;;;;;4985087;28;20429;-73
2021/06/12 12:53:11;;;;;;;2.00;0.90;;;;;;;;;;4988758;28;20444;-71
2021/06/12 12:55:38;;;;;;;1.57;0.80;;;;;;;;;;4988574;28;20453;-73
2021/06/12 12:58:04;;;;;;;1.00;0.53;;;;;;;;;;4989211;28;20429;-73
2021/06/12 13:00:33;;;;;;;1.27;0.63;;;;;;;;;;4983965;28;20437;-73
2021/06/12 13:02:59;;;;;;;1.27;0.60;;;;;;;;;;4984963;28;20437;-74
2021/06/12 13:05:26;;;;;;;0.83;0.53;;;;;;;;;;4987766;28;20479;-73
2021/06/12 13:08:03;;;;;;;2.30;1.33;;;;;;;;;;4988793;28;20413;-73
2021/06/12 13:10:33;;;;;;;0.60;0.60;;;;;;;;;;4989346;28;20431;-73
2021/06/12 13:13:00;;;;;;;1.73;0.93;;;;;;;;;;4982736;28;20520;-72
2021/06/12 13:15:27;;;;;;;1.47;0.90;;;;;;;;;;4984270;28;20471;-73
2021/06/12 13:18:04;;;;;;;2.40;1.00;;;;;;;;;;4987932;28;20471;-73
2021/06/12 13:20:30;;;;;;;0.90;0.80;;;;;;;;;;4982687;28;20447;-73
2021/06/12 13:22:56;;;;;;;0.80;0.80;;;;;;;;;;4986578;28;20954;-73
2021/06/12 13:25:22;;;;;;;0.70;0.60;;;;;;;;;;4989443;28;21013;-73
2021/06/12 13:27:49;;;;;;;1.00;0.93;;;;;;;;;;4984808;28;20954;-73
2021/06/12 13:30:15;;;;;;;1.93;0.67;;;;;;;;;;4986149;28;20433;-73
2021/06/12 13:32:42;;;;;;;0.93;0.83;;;;;;;;;;4986756;28;20958;-73
2021/06/12 13:35:18;;;;;;;1.90;1.00;;;;;;;;;;4978715;28;20810;-73
2021/06/12 13:37:44;;;;;;;4.50;1.73;;;;;;;;;;4988533;28;20479;-72
2021/06/12 13:40:13;;;;;;;1.30;0.70;;;;;;;;;;4969057;28;20433;-73
2021/06/12 13:42:39;;;;;;;2.93;1.00;;;;;;;;;;4987500;28;20540;-73
2021/06/12 13:45:07;;;;;;;1.90;0.90;;;;;;;;;;4987878;28;20457;-73
2021/06/12 13:47:33;;;;;;;1.80;1.10;;;;;;;;;;4987156;28;20491;-72
2021/06/12 13:50:02;;;;;;;1.23;1.00;;;;;;;;;;4985287;28;21105;-72
2021/06/12 13:52:31;;;;;;;2.80;1.07;;;;;;;;;;4987745;28;20432;-73
2021/06/12 13:54:57;;;;;;;2.67;0.93;;;;;;;;;;4986124;28;20433;-73
2021/06/12 13:57:23;;;;;;;4.30;1.30;;;;;;;;;;4987706;28;20425;-73
2021/06/12 13:59:49;;;;;;;1.37;1.10;;;;;;;;;;4987822;28;20432;-73
2021/06/12 14:02:15;;;;;;;0.80;0.80;;;;;;;;;;4981049;28;20507;-74
2021/06/12 14:04:41;;;;;;;2.10;1.10;;;;;;;;;;4986058;28;20468;-73
2021/06/12 14:07:08;;;;;;;3.83;0.90;;;;;;;;;;4987669;28;20476;-73
2021/06/12 14:09:34;;;;;;;4.30;0.93;;;;;;;;;;4986516;28;20441;-73
2021/06/12 14:12:01;;;;;;;7.53;1.27;;;;;;;;;;4985619;28;21041;-74
2021/06/12 14:14:27;;;;;;;2.50;1.20;;;;;;;;;;4984337;28;20485;-73
2021/06/12 14:16:53;;;;;;;1.40;1.30;;;;;;;;;;4984011;28;20453;-73
2021/06/12 14:19:19;;;;;;;2.70;1.17;;;;;;;;;;4971645;28;20947;-74
2021/06/12 14:21:45;;;;;;;1.57;1.40;;;;;;;;;;4988285;28;20591;-73
2021/06/12 14:24:14;;;;;;;3.67;1.10;;;;;;;;;;4987017;28;20466;-71
2021/06/12 14:26:46;;;;;;;2.73;1.00;;;;;;;;;;4987054;28;20492;-73
2021/06/12 14:29:14;;;;;;;1.90;0.70;;;;;;;;;;4985002;28;20433;-73
2021/06/12 14:31:40;;;;;;;4.30;1.20;;;;;;;;;;4975567;28;20444;-73
2021/06/12 14:34:06;;;;;;;1.87;0.90;;;;;;;;;;4985234;28;20425;-73
2021/06/12 14:36:32;;;;;;;2.63;1.03;;;;;;;;;;4982878;28;20460;-73
2021/06/12 14:38:58;;;;;;;1.10;0.80;;;;;;;;;;4982063;28;20524;-74
2021/06/12 14:41:25;;;;;;;2.53;1.10;;;;;;;;;;4976054;28;20479;-74
2021/06/12 14:43:51;;;;;;;2.10;1.20;;;;;;;;;;4981734;28;20464;-73
2021/06/12 14:46:17;;;;;;;3.17;1.57;;;;;;;;;;4978157;28;20464;-73